Florencia — IBPD — position and weather

sailwx.info

Track history (hours):
 
Tides and Currents Weather Stations Pressure Air Temp Water Temp Dewpoint Dewpoint Depression Visibility Wind Speed Wind Dir Waves Ship Positions

Florencia

Last reported at 2014-Oct-31 02:33 UTC. Time now 2014-Nov-01 06:21 UTC.
Position N 38°49' E 013°25'.

Length 186 m; draft 5.8 m.

Type: Ship. MMSI: 247105900.

Date/timePositionNaut miles runAvg speedWind from/ knotsBaromVisibWave heightAir tempDewpointWater temp
2014-Oct-31 02:33N 38°49' E 013°25'2222.1
2014-Oct-31 01:33N 38°28' E 013°37'2222.0
2014-Oct-31 00:33N 38°07' E 013°43'8 7.8
2014-Oct-30 23:33N 37°59' E 013°42'0 0.0
2014-Oct-30 22:33N 37°59' E 013°42'0 0.0
2014-Oct-30 21:33N 37°59' E 013°42'0 0.0
2014-Oct-30 20:33N 37°59' E 013°42'53 1.3
2014-Oct-29 03:33N 38°50' E 013°25'2121.3
2014-Oct-29 02:34N 38°31' E 013°36'2121.3
2014-Oct-29 01:33N 38°10' E 013°43'1111.0
2014-Oct-29 00:33N 37°59' E 013°42'0 0.0
2014-Oct-28 23:33N 37°59' E 013°42'0 0.0
2014-Oct-28 22:33N 37°59' E 013°42'0 0.0
2014-Oct-28 21:33N 37°59' E 013°42'0 0.0
2014-Oct-28 20:33N 37°59' E 013°42'0 0.0
2014-Oct-28 19:33N 37°59' E 013°42'0 0.0
2014-Oct-28 18:30N 37°59' E 013°42'0 0.0
2014-Oct-28 17:33N 37°59' E 013°42'0 0.0
2014-Oct-28 16:33N 37°59' E 013°42'0 0.0
2014-Oct-28 15:33N 37°59' E 013°42'0 0.0
2014-Oct-28 14:33N 37°59' E 013°42'0 0.0
2014-Oct-28 13:33N 37°59' E 013°42'0 0.0
2014-Oct-28 12:30N 37°59' E 013°42'0 0.0
2014-Oct-28 11:33N 37°59' E 013°42'0 0.0
2014-Oct-28 10:33N 37°59' E 013°42'0 0.0
2014-Oct-28 09:33N 37°59' E 013°42'0 0.0
2014-Oct-28 08:33N 37°59' E 013°42'9 9.1
2014-Oct-28 07:34N 38°08' E 013°43'2121.2
2014-Oct-28 06:33N 38°29' E 013°37'2221.5
2014-Oct-28 05:32N 38°49' E 013°26'7 0.2
2014-Oct-26 21:08N 38°47' E 013°17'1221.2
2014-Oct-26 20:34N 38°35' E 013°21'2121.4
2014-Oct-26 19:33N 38°15' E 013°27'8 8.0
2014-Oct-26 18:33N 38°08' E 013°22'0 0.0
2014-Oct-26 17:33N 38°08' E 013°22'0 0.0
2014-Oct-26 16:33N 38°08' E 013°22'0 0.0
2014-Oct-26 15:33N 38°08' E 013°22'0 0.0
2014-Oct-26 14:33N 38°08' E 013°22'0 0.0
2014-Oct-26 13:33N 38°08' E 013°22'0 0.0
2014-Oct-26 12:33N 38°08' E 013°22'0 0.0
2014-Oct-26 11:33N 38°08' E 013°22'0 0.0
2014-Oct-26 10:33N 38°08' E 013°22'0 0.4
2014-Oct-26 09:33N 38°08' E 013°22'1212.5
2014-Oct-26 08:34N 38°18' E 013°14'2121.4
2014-Oct-26 07:33N 38°18' E 012°47'11 0.6
2014-Oct-25 12:27N 38°14' E 012°34'1921.1
2014-Oct-25 11:33N 38°17' E 012°58'2020.5
2014-Oct-25 10:33N 38°15' E 013°24'7 7.3
2014-Oct-25 09:34N 38°08' E 013°22'0 0.0
2014-Oct-25 08:34N 38°08' E 013°22'0 0.0
2014-Oct-25 07:34N 38°08' E 013°22'9 8.6
2014-Oct-25 06:34N 38°16' E 013°24'2121.1
2014-Oct-25 05:34N 38°37' E 013°21'  
2014-Oct-22 00:33N 38°50' E 013°35'2221.7
2014-Oct-21 23:33N 38°28' E 013°38'2221.7
2014-Oct-21 22:33N 38°07' E 013°42'8 7.7
2014-Oct-21 21:33N 37°59' E 013°42'0 0.0
2014-Oct-21 20:33N 37°59' E 013°42'0 0.0
2014-Oct-21 19:33N 37°59' E 013°42'0 0.0
2014-Oct-21 18:33N 37°59' E 013°42'0 0.0
2014-Oct-21 17:33N 37°59' E 013°42'0 0.0
2014-Oct-21 16:33N 37°59' E 013°42'0 0.0
2014-Oct-21 15:33N 37°59' E 013°42'0 0.0
2014-Oct-21 14:33N 37°59' E 013°42'0 0.0
2014-Oct-21 13:33N 37°59' E 013°42'0 0.0
2014-Oct-21 12:33N 37°59' E 013°42'0 0.0
2014-Oct-21 11:33N 37°59' E 013°42'0 0.0
2014-Oct-21 10:33N 37°59' E 013°42'0 0.0
2014-Oct-21 09:33N 37°59' E 013°42'0 0.0
2014-Oct-21 08:33N 37°59' E 013°42'0 0.0
2014-Oct-21 07:33N 37°59' E 013°42'9 8.5
2014-Oct-21 06:33N 38°08' E 013°44'2221.7
2014-Oct-21 05:33N 38°29' E 013°38'2221.9
2014-Oct-21 04:33N 38°49' E 013°26'  
Track history (hours):
 
Tides and Currents Weather Stations Pressure Air Temp Water Temp Dewpoint Dewpoint Depression Visibility Wind Speed Wind Dir Waves Ship Positions

Florencia

Last reported at 2014-Oct-31 02:33 UTC. Time now 2014-Nov-01 06:21 UTC.
Position N 38°49' E 013°25'.

Length 186 m; draft 5.8 m.

Type: Ship. MMSI: 247105900.

Date/timePositionNaut miles runAvg speedWind from/ knotsBaromVisibWave heightAir tempDewpointWater temp
2014-Oct-31 02:33N 38°49' E 013°25'2222.1
2014-Oct-31 01:33N 38°28' E 013°37'2222.0
2014-Oct-31 00:33N 38°07' E 013°43'8 7.8
2014-Oct-30 23:33N 37°59' E 013°42'0 0.0
2014-Oct-30 22:33N 37°59' E 013°42'0 0.0
2014-Oct-30 21:33N 37°59' E 013°42'0 0.0
2014-Oct-30 20:33N 37°59' E 013°42'53 1.3
2014-Oct-29 03:33N 38°50' E 013°25'2121.3
2014-Oct-29 02:34N 38°31' E 013°36'2121.3
2014-Oct-29 01:33N 38°10' E 013°43'1111.0
2014-Oct-29 00:33N 37°59' E 013°42'0 0.0
2014-Oct-28 23:33N 37°59' E 013°42'0 0.0
2014-Oct-28 22:33N 37°59' E 013°42'0 0.0
2014-Oct-28 21:33N 37°59' E 013°42'0 0.0
2014-Oct-28 20:33N 37°59' E 013°42'0 0.0
2014-Oct-28 19:33N 37°59' E 013°42'0 0.0
2014-Oct-28 18:30N 37°59' E 013°42'0 0.0
2014-Oct-28 17:33N 37°59' E 013°42'0 0.0
2014-Oct-28 16:33N 37°59' E 013°42'0 0.0
2014-Oct-28 15:33N 37°59' E 013°42'0 0.0
2014-Oct-28 14:33N 37°59' E 013°42'0 0.0
2014-Oct-28 13:33N 37°59' E 013°42'0 0.0
2014-Oct-28 12:30N 37°59' E 013°42'0 0.0
2014-Oct-28 11:33N 37°59' E 013°42'0 0.0
2014-Oct-28 10:33N 37°59' E 013°42'0 0.0
2014-Oct-28 09:33N 37°59' E 013°42'0 0.0
2014-Oct-28 08:33N 37°59' E 013°42'9 9.1
2014-Oct-28 07:34N 38°08' E 013°43'2121.2
2014-Oct-28 06:33N 38°29' E 013°37'2221.5
2014-Oct-28 05:32N 38°49' E 013°26'7 0.2
2014-Oct-26 21:08N 38°47' E 013°17'1221.2
2014-Oct-26 20:34N 38°35' E 013°21'2121.4
2014-Oct-26 19:33N 38°15' E 013°27'8 8.0
2014-Oct-26 18:33N 38°08' E 013°22'0 0.0
2014-Oct-26 17:33N 38°08' E 013°22'0 0.0
2014-Oct-26 16:33N 38°08' E 013°22'0 0.0
2014-Oct-26 15:33N 38°08' E 013°22'0 0.0
2014-Oct-26 14:33N 38°08' E 013°22'0 0.0
2014-Oct-26 13:33N 38°08' E 013°22'0 0.0
2014-Oct-26 12:33N 38°08' E 013°22'0 0.0
2014-Oct-26 11:33N 38°08' E 013°22'0 0.0
2014-Oct-26 10:33N 38°08' E 013°22'0 0.4
2014-Oct-26 09:33N 38°08' E 013°22'1212.5
2014-Oct-26 08:34N 38°18' E 013°14'2121.4
2014-Oct-26 07:33N 38°18' E 012°47'11 0.6
2014-Oct-25 12:27N 38°14' E 012°34'1921.1
2014-Oct-25 11:33N 38°17' E 012°58'2020.5
2014-Oct-25 10:33N 38°15' E 013°24'7 7.3
2014-Oct-25 09:34N 38°08' E 013°22'0 0.0
2014-Oct-25 08:34N 38°08' E 013°22'0 0.0
2014-Oct-25 07:34N 38°08' E 013°22'9 8.6
2014-Oct-25 06:34N 38°16' E 013°24'2121.1
2014-Oct-25 05:34N 38°37' E 013°21'  
2014-Oct-22 00:33N 38°50' E 013°35'2221.7
2014-Oct-21 23:33N 38°28' E 013°38'2221.7
2014-Oct-21 22:33N 38°07' E 013°42'8 7.7
2014-Oct-21 21:33N 37°59' E 013°42'0 0.0
2014-Oct-21 20:33N 37°59' E 013°42'0 0.0
2014-Oct-21 19:33N 37°59' E 013°42'0 0.0
2014-Oct-21 18:33N 37°59' E 013°42'0 0.0
2014-Oct-21 17:33N 37°59' E 013°42'0 0.0
2014-Oct-21 16:33N 37°59' E 013°42'0 0.0
2014-Oct-21 15:33N 37°59' E 013°42'0 0.0
2014-Oct-21 14:33N 37°59' E 013°42'0 0.0
2014-Oct-21 13:33N 37°59' E 013°42'0 0.0
2014-Oct-21 12:33N 37°59' E 013°42'0 0.0
2014-Oct-21 11:33N 37°59' E 013°42'0 0.0
2014-Oct-21 10:33N 37°59' E 013°42'0 0.0
2014-Oct-21 09:33N 37°59' E 013°42'0 0.0
2014-Oct-21 08:33N 37°59' E 013°42'0 0.0
2014-Oct-21 07:33N 37°59' E 013°42'9 8.5
2014-Oct-21 06:33N 38°08' E 013°44'2221.7
2014-Oct-21 05:33N 38°29' E 013°38'2221.9
2014-Oct-21 04:33N 38°49' E 013°26'  

Dump ship's entire track history